sensor_id;sensor_type;location;lat;lon;timestamp;P1;durP1;ratioP1;P2;durP2;ratioP2
70335;SDS011;57756;47.408;18.940;2022-07-05T00:00:55;4.07;;;1.83;;
70335;SDS011;57756;47.408;18.940;2022-07-05T00:03:21;6.47;;;1.63;;
70335;SDS011;57756;47.408;18.940;2022-07-05T00:05:46;8.63;;;1.93;;
70335;SDS011;57756;47.408;18.940;2022-07-05T00:08:12;4.40;;;2.13;;
70335;SDS011;57756;47.408;18.940;2022-07-05T00:10:37;6.53;;;1.30;;
70335;SDS011;57756;47.408;18.940;2022-07-05T00:13:03;8.67;;;1.67;;
70335;SDS011;57756;47.408;18.940;2022-07-05T00:15:30;2.97;;;1.23;;
70335;SDS011;57756;47.408;18.940;2022-07-05T00:17:56;4.60;;;1.30;;
70335;SDS011;57756;47.408;18.940;2022-07-05T00:20:21;3.40;;;1.20;;
70335;SDS011;57756;47.408;18.940;2022-07-05T00:22:47;5.93;;;1.60;;
70335;SDS011;57756;47.408;18.940;2022-07-05T00:25:12;2.70;;;1.40;;
70335;SDS011;57756;47.408;18.940;2022-07-05T00:27:38;2.27;;;1.20;;
70335;SDS011;57756;47.408;18.940;2022-07-05T00:30:04;3.87;;;1.43;;
70335;SDS011;57756;47.408;18.940;2022-07-05T00:32:30;3.63;;;1.30;;
70335;SDS011;57756;47.408;18.940;2022-07-05T00:34:56;4.53;;;1.33;;
70335;SDS011;57756;47.408;18.940;2022-07-05T00:37:21;5.93;;;1.30;;
70335;SDS011;57756;47.408;18.940;2022-07-05T00:39:47;4.38;;;1.10;;
70335;SDS011;57756;47.408;18.940;2022-07-05T00:42:13;3.30;;;1.33;;
70335;SDS011;57756;47.408;18.940;2022-07-05T00:44:39;2.83;;;1.30;;
70335;SDS011;57756;47.408;18.940;2022-07-05T00:47:06;2.27;;;1.10;;
70335;SDS011;57756;47.408;18.940;2022-07-05T00:49:34;2.72;;;1.38;;
70335;SDS011;57756;47.408;18.940;2022-07-05T00:52:01;3.85;;;1.25;;
70335;SDS011;57756;47.408;18.940;2022-07-05T00:54:28;4.38;;;1.33;;
70335;SDS011;57756;47.408;18.940;2022-07-05T00:56:55;3.67;;;1.10;;
70335;SDS011;57756;47.408;18.940;2022-07-05T00:59:21;2.83;;;0.93;;
70335;SDS011;57756;47.408;18.940;2022-07-05T01:01:47;2.92;;;0.93;;
70335;SDS011;57756;47.408;18.940;2022-07-05T01:04:12;2.50;;;1.00;;
70335;SDS011;57756;47.408;18.940;2022-07-05T01:06:39;3.87;;;1.17;;
70335;SDS011;57756;47.408;18.940;2022-07-05T01:09:05;3.47;;;1.20;;
70335;SDS011;57756;47.408;18.940;2022-07-05T01:11:33;1.92;;;0.70;;
70335;SDS011;57756;47.408;18.940;2022-07-05T01:13:59;2.47;;;1.00;;
70335;SDS011;57756;47.408;18.940;2022-07-05T01:16:25;2.50;;;1.00;;
70335;SDS011;57756;47.408;18.940;2022-07-05T01:18:51;2.33;;;1.15;;
70335;SDS011;57756;47.408;18.940;2022-07-05T01:21:18;3.43;;;1.20;;
70335;SDS011;57756;47.408;18.940;2022-07-05T01:23:46;3.55;;;1.00;;
70335;SDS011;57756;47.408;18.940;2022-07-05T01:26:13;2.85;;;0.90;;
70335;SDS011;57756;47.408;18.940;2022-07-05T01:28:38;3.03;;;1.10;;
70335;SDS011;57756;47.408;18.940;2022-07-05T01:31:04;2.50;;;1.00;;
70335;SDS011;57756;47.408;18.940;2022-07-05T01:33:30;3.57;;;1.30;;
70335;SDS011;57756;47.408;18.940;2022-07-05T01:35:56;4.75;;;1.33;;
70335;SDS011;57756;47.408;18.940;2022-07-05T01:38:23;2.72;;;0.90;;
70335;SDS011;57756;47.408;18.940;2022-07-05T01:40:49;3.17;;;0.98;;
70335;SDS011;57756;47.408;18.940;2022-07-05T01:43:20;3.50;;;0.90;;
70335;SDS011;57756;47.408;18.940;2022-07-05T01:45:46;2.65;;;0.90;;
70335;SDS011;57756;47.408;18.940;2022-07-05T01:48:13;3.53;;;1.10;;
70335;SDS011;57756;47.408;18.940;2022-07-05T01:53:44;3.17;;;1.00;;
70335;SDS011;57756;47.408;18.940;2022-07-05T01:56:11;2.73;;;0.90;;
70335;SDS011;57756;47.408;18.940;2022-07-05T01:58:37;4.55;;;1.08;;
70335;SDS011;57756;47.408;18.940;2022-07-05T02:01:04;3.05;;;1.20;;
70335;SDS011;57756;47.408;18.940;2022-07-05T02:03:30;2.67;;;1.00;;
70335;SDS011;57756;47.408;18.940;2022-07-05T02:05:56;3.28;;;0.98;;
70335;SDS011;57756;47.408;18.940;2022-07-05T02:08:26;4.83;;;1.10;;
70335;SDS011;57756;47.408;18.940;2022-07-05T02:10:54;3.60;;;1.00;;
70335;SDS011;57756;47.408;18.940;2022-07-05T02:13:20;5.20;;;1.23;;
70335;SDS011;57756;47.408;18.940;2022-07-05T02:15:46;5.50;;;1.38;;
70335;SDS011;57756;47.408;18.940;2022-07-05T02:18:12;4.33;;;1.40;;
70335;SDS011;57756;47.408;18.940;2022-07-05T02:20:38;3.28;;;1.00;;
70335;SDS011;57756;47.408;18.940;2022-07-05T02:23:04;2.30;;;1.00;;
70335;SDS011;57756;47.408;18.940;2022-07-05T02:25:30;1.85;;;0.70;;
70335;SDS011;57756;47.408;18.940;2022-07-05T02:27:56;3.30;;;1.10;;
70335;SDS011;57756;47.408;18.940;2022-07-05T02:30:22;4.10;;;1.00;;
70335;SDS011;57756;47.408;18.940;2022-07-05T02:32:47;3.55;;;1.13;;
70335;SDS011;57756;47.408;18.940;2022-07-05T02:35:13;3.63;;;1.40;;
70335;SDS011;57756;47.408;18.940;2022-07-05T02:37:39;3.58;;;1.10;;
70335;SDS011;57756;47.408;18.940;2022-07-05T02:40:09;3.58;;;1.20;;
70335;SDS011;57756;47.408;18.940;2022-07-05T02:42:36;3.80;;;1.17;;
70335;SDS011;57756;47.408;18.940;2022-07-05T02:45:02;2.90;;;1.20;;
70335;SDS011;57756;47.408;18.940;2022-07-05T02:47:32;3.47;;;1.35;;
70335;SDS011;57756;47.408;18.940;2022-07-05T02:50:04;3.65;;;1.05;;
70335;SDS011;57756;47.408;18.940;2022-07-05T02:52:31;3.38;;;1.00;;
70335;SDS011;57756;47.408;18.940;2022-07-05T02:54:57;4.07;;;1.63;;
70335;SDS011;57756;47.408;18.940;2022-07-05T02:57:22;5.20;;;1.30;;
70335;SDS011;57756;47.408;18.940;2022-07-05T02:59:47;1.92;;;1.10;;
70335;SDS011;57756;47.408;18.940;2022-07-05T03:02:13;3.17;;;1.43;;
70335;SDS011;57756;47.408;18.940;2022-07-05T03:04:39;2.07;;;0.90;;
70335;SDS011;57756;47.408;18.940;2022-07-05T03:07:04;2.47;;;1.10;;
70335;SDS011;57756;47.408;18.940;2022-07-05T03:09:30;6.53;;;1.17;;
70335;SDS011;57756;47.408;18.940;2022-07-05T03:11:55;5.70;;;1.30;;
70335;SDS011;57756;47.408;18.940;2022-07-05T03:14:21;7.20;;;1.47;;
70335;SDS011;57756;47.408;18.940;2022-07-05T03:16:47;4.33;;;1.40;;
70335;SDS011;57756;47.408;18.940;2022-07-05T03:19:12;3.40;;;1.30;;
70335;SDS011;57756;47.408;18.940;2022-07-05T03:21:38;2.77;;;1.03;;
70335;SDS011;57756;47.408;18.940;2022-07-05T03:24:03;5.63;;;1.13;;
70335;SDS011;57756;47.408;18.940;2022-07-05T03:26:29;4.40;;;1.40;;
70335;SDS011;57756;47.408;18.940;2022-07-05T03:28:54;2.95;;;1.20;;
70335;SDS011;57756;47.408;18.940;2022-07-05T03:31:20;7.63;;;1.70;;
70335;SDS011;57756;47.408;18.940;2022-07-05T03:33:46;10.33;;;1.27;;
70335;SDS011;57756;47.408;18.940;2022-07-05T03:36:11;3.85;;;1.20;;
70335;SDS011;57756;47.408;18.940;2022-07-05T03:38:37;4.03;;;1.10;;
70335;SDS011;57756;47.408;18.940;2022-07-05T03:41:02;4.33;;;1.30;;
70335;SDS011;57756;47.408;18.940;2022-07-05T03:43:28;4.13;;;1.23;;
70335;SDS011;57756;47.408;18.940;2022-07-05T03:45:53;4.93;;;1.50;;
70335;SDS011;57756;47.408;18.940;2022-07-05T03:48:19;4.72;;;1.30;;
70335;SDS011;57756;47.408;18.940;2022-07-05T03:50:45;4.03;;;1.38;;
70335;SDS011;57756;47.408;18.940;2022-07-05T03:53:11;2.85;;;1.45;;
70335;SDS011;57756;47.408;18.940;2022-07-05T03:55:37;3.60;;;1.17;;
70335;SDS011;57756;47.408;18.940;2022-07-05T03:58:02;2.70;;;1.20;;
70335;SDS011;57756;47.408;18.940;2022-07-05T04:00:28;3.38;;;1.33;;
70335;SDS011;57756;47.408;18.940;2022-07-05T04:02:54;3.70;;;1.33;;
70335;SDS011;57756;47.408;18.940;2022-07-05T04:05:19;6.80;;;1.60;;
70335;SDS011;57756;47.408;18.940;2022-07-05T04:07:48;4.33;;;1.80;;
70335;SDS011;57756;47.408;18.940;2022-07-05T04:10:18;5.50;;;1.50;;
70335;SDS011;57756;47.408;18.940;2022-07-05T04:12:44;2.70;;;1.20;;
70335;SDS011;57756;47.408;18.940;2022-07-05T04:15:10;3.60;;;1.60;;
70335;SDS011;57756;47.408;18.940;2022-07-05T04:17:45;4.43;;;1.00;;
70335;SDS011;57756;47.408;18.940;2022-07-05T04:20:15;3.42;;;1.30;;
70335;SDS011;57756;47.408;18.940;2022-07-05T04:22:41;5.32;;;1.58;;
70335;SDS011;57756;47.408;18.940;2022-07-05T04:25:07;5.30;;;1.25;;
70335;SDS011;57756;47.408;18.940;2022-07-05T04:27:49;5.30;;;1.50;;
70335;SDS011;57756;47.408;18.940;2022-07-05T04:30:17;2.53;;;1.10;;
70335;SDS011;57756;47.408;18.940;2022-07-05T04:32:44;3.95;;;1.30;;
70335;SDS011;57756;47.408;18.940;2022-07-05T04:35:10;3.78;;;1.10;;
70335;SDS011;57756;47.408;18.940;2022-07-05T04:37:36;3.03;;;1.42;;
70335;SDS011;57756;47.408;18.940;2022-07-05T04:40:03;2.50;;;1.00;;
70335;SDS011;57756;47.408;18.940;2022-07-05T04:42:30;5.35;;;1.30;;
70335;SDS011;57756;47.408;18.940;2022-07-05T04:44:56;2.95;;;1.30;;
70335;SDS011;57756;47.408;18.940;2022-07-05T04:47:22;3.92;;;1.17;;
70335;SDS011;57756;47.408;18.940;2022-07-05T04:49:48;4.27;;;1.30;;
70335;SDS011;57756;47.408;18.940;2022-07-05T04:52:13;12.25;;;1.60;;
70335;SDS011;57756;47.408;18.940;2022-07-05T04:54:39;4.87;;;1.10;;
70335;SDS011;57756;47.408;18.940;2022-07-05T04:57:04;3.70;;;1.07;;
70335;SDS011;57756;47.408;18.940;2022-07-05T04:59:30;4.50;;;1.40;;
70335;SDS011;57756;47.408;18.940;2022-07-05T05:01:56;2.83;;;1.07;;
70335;SDS011;57756;47.408;18.940;2022-07-05T05:04:21;3.65;;;1.20;;
70335;SDS011;57756;47.408;18.940;2022-07-05T05:06:47;7.80;;;1.20;;
70335;SDS011;57756;47.408;18.940;2022-07-05T05:09:13;3.20;;;1.20;;
70335;SDS011;57756;47.408;18.940;2022-07-05T05:11:38;3.65;;;1.50;;
70335;SDS011;57756;47.408;18.940;2022-07-05T05:14:04;2.60;;;0.90;;
70335;SDS011;57756;47.408;18.940;2022-07-05T05:16:29;2.47;;;1.17;;
70335;SDS011;57756;47.408;18.940;2022-07-05T05:18:55;2.50;;;1.20;;
70335;SDS011;57756;47.408;18.940;2022-07-05T05:21:21;5.90;;;1.40;;
70335;SDS011;57756;47.408;18.940;2022-07-05T05:23:46;4.22;;;1.25;;
70335;SDS011;57756;47.408;18.940;2022-07-05T05:26:12;3.00;;;1.00;;
70335;SDS011;57756;47.408;18.940;2022-07-05T05:28:37;5.23;;;1.23;;
70335;SDS011;57756;47.408;18.940;2022-07-05T05:31:04;3.90;;;1.10;;
70335;SDS011;57756;47.408;18.940;2022-07-05T05:33:29;4.35;;;1.10;;
70335;SDS011;57756;47.408;18.940;2022-07-05T05:35:55;3.23;;;1.10;;
70335;SDS011;57756;47.408;18.940;2022-07-05T05:38:20;6.00;;;1.20;;
70335;SDS011;57756;47.408;18.940;2022-07-05T05:40:46;2.65;;;0.95;;
70335;SDS011;57756;47.408;18.940;2022-07-05T05:43:11;3.27;;;1.30;;
70335;SDS011;57756;47.408;18.940;2022-07-05T05:45:37;5.57;;;1.07;;
70335;SDS011;57756;47.408;18.940;2022-07-05T05:48:03;3.53;;;1.20;;
70335;SDS011;57756;47.408;18.940;2022-07-05T05:50:29;4.22;;;1.00;;
70335;SDS011;57756;47.408;18.940;2022-07-05T05:53:00;2.70;;;1.20;;
70335;SDS011;57756;47.408;18.940;2022-07-05T05:55:26;4.57;;;1.20;;
70335;SDS011;57756;47.408;18.940;2022-07-05T05:57:52;4.97;;;1.10;;
70335;SDS011;57756;47.408;18.940;2022-07-05T06:00:18;2.75;;;1.13;;
70335;SDS011;57756;47.408;18.940;2022-07-05T06:02:45;3.47;;;1.00;;
70335;SDS011;57756;47.408;18.940;2022-07-05T06:05:11;2.55;;;1.00;;
70335;SDS011;57756;47.408;18.940;2022-07-05T06:10:10;2.63;;;1.02;;
70335;SDS011;57756;47.408;18.940;2022-07-05T06:12:36;2.70;;;0.90;;
70335;SDS011;57756;47.408;18.940;2022-07-05T06:15:01;2.90;;;1.07;;
70335;SDS011;57756;47.408;18.940;2022-07-05T06:17:27;4.27;;;1.00;;
70335;SDS011;57756;47.408;18.940;2022-07-05T06:19:52;2.20;;;0.90;;
70335;SDS011;57756;47.408;18.940;2022-07-05T06:22:18;2.90;;;1.20;;
70335;SDS011;57756;47.408;18.940;2022-07-05T06:24:43;4.30;;;1.30;;
70335;SDS011;57756;47.408;18.940;2022-07-05T06:27:09;3.88;;;1.00;;
70335;SDS011;57756;47.408;18.940;2022-07-05T06:29:34;4.00;;;1.27;;
70335;SDS011;57756;47.408;18.940;2022-07-05T06:32:00;3.87;;;1.37;;
70335;SDS011;57756;47.408;18.940;2022-07-05T06:34:25;2.53;;;1.15;;
70335;SDS011;57756;47.408;18.940;2022-07-05T06:36:51;2.97;;;1.00;;
70335;SDS011;57756;47.408;18.940;2022-07-05T06:39:16;4.03;;;1.10;;
70335;SDS011;57756;47.408;18.940;2022-07-05T06:41:42;5.10;;;1.07;;
70335;SDS011;57756;47.408;18.940;2022-07-05T06:44:07;5.40;;;1.10;;
70335;SDS011;57756;47.408;18.940;2022-07-05T06:46:33;4.67;;;1.40;;
70335;SDS011;57756;47.408;18.940;2022-07-05T06:48:58;3.07;;;0.90;;
70335;SDS011;57756;47.408;18.940;2022-07-05T06:51:24;2.50;;;1.13;;
70335;SDS011;57756;47.408;18.940;2022-07-05T06:53:49;2.60;;;0.70;;
70335;SDS011;57756;47.408;18.940;2022-07-05T06:56:15;5.20;;;1.10;;
70335;SDS011;57756;47.408;18.940;2022-07-05T06:58:40;3.53;;;0.70;;
70335;SDS011;57756;47.408;18.940;2022-07-05T07:01:06;3.67;;;0.82;;
70335;SDS011;57756;47.408;18.940;2022-07-05T07:03:31;2.47;;;0.90;;
70335;SDS011;57756;47.408;18.940;2022-07-05T07:05:57;2.53;;;1.00;;
70335;SDS011;57756;47.408;18.940;2022-07-05T07:08:23;2.90;;;1.07;;
70335;SDS011;57756;47.408;18.940;2022-07-05T07:11:07;2.88;;;1.00;;
70335;SDS011;57756;47.408;18.940;2022-07-05T07:13:32;8.40;;;1.60;;
70335;SDS011;57756;47.408;18.940;2022-07-05T07:15:58;2.53;;;1.00;;
70335;SDS011;57756;47.408;18.940;2022-07-05T07:18:23;10.20;;;1.40;;
70335;SDS011;57756;47.408;18.940;2022-07-05T07:20:49;10.13;;;1.60;;
70335;SDS011;57756;47.408;18.940;2022-07-05T07:23:14;4.75;;;0.95;;
70335;SDS011;57756;47.408;18.940;2022-07-05T07:25:41;5.20;;;1.27;;
70335;SDS011;57756;47.408;18.940;2022-07-05T07:28:07;3.27;;;0.90;;
70335;SDS011;57756;47.408;18.940;2022-07-05T07:30:33;3.60;;;1.00;;
70335;SDS011;57756;47.408;18.940;2022-07-05T07:32:58;12.13;;;1.27;;
70335;SDS011;57756;47.408;18.940;2022-07-05T07:35:24;2.43;;;0.77;;
70335;SDS011;57756;47.408;18.940;2022-07-05T07:37:50;2.40;;;0.90;;
70335;SDS011;57756;47.408;18.940;2022-07-05T07:40:15;6.13;;;0.90;;
70335;SDS011;57756;47.408;18.940;2022-07-05T07:42:41;4.30;;;1.13;;
70335;SDS011;57756;47.408;18.940;2022-07-05T07:45:07;3.95;;;0.80;;
70335;SDS011;57756;47.408;18.940;2022-07-05T07:47:33;4.33;;;0.80;;
70335;SDS011;57756;47.408;18.940;2022-07-05T07:50:00;2.15;;;0.70;;
70335;SDS011;57756;47.408;18.940;2022-07-05T07:52:26;5.43;;;1.13;;
70335;SDS011;57756;47.408;18.940;2022-07-05T07:54:52;3.27;;;1.00;;
70335;SDS011;57756;47.408;18.940;2022-07-05T07:57:18;3.05;;;1.02;;
70335;SDS011;57756;47.408;18.940;2022-07-05T07:59:43;2.10;;;0.90;;
70335;SDS011;57756;47.408;18.940;2022-07-05T08:02:09;2.63;;;0.97;;
70335;SDS011;57756;47.408;18.940;2022-07-05T08:04:35;3.22;;;1.00;;
70335;SDS011;57756;47.408;18.940;2022-07-05T08:07:01;3.05;;;1.10;;
70335;SDS011;57756;47.408;18.940;2022-07-05T08:09:28;21.97;;;1.33;;
70335;SDS011;57756;47.408;18.940;2022-07-05T08:11:54;7.32;;;1.50;;
70335;SDS011;57756;47.408;18.940;2022-07-05T08:14:20;7.83;;;1.33;;
70335;SDS011;57756;47.408;18.940;2022-07-05T08:16:46;11.25;;;1.73;;
70335;SDS011;57756;47.408;18.940;2022-07-05T08:19:12;5.18;;;0.90;;
70335;SDS011;57756;47.408;18.940;2022-07-05T08:21:56;4.50;;;0.90;;
70335;SDS011;57756;47.408;18.940;2022-07-05T08:24:22;5.93;;;1.20;;
70335;SDS011;57756;47.408;18.940;2022-07-05T08:26:47;8.70;;;2.00;;
70335;SDS011;57756;47.408;18.940;2022-07-05T08:29:13;5.18;;;0.95;;
70335;SDS011;57756;47.408;18.940;2022-07-05T08:31:46;9.93;;;1.30;;
70335;SDS011;57756;47.408;18.940;2022-07-05T08:34:14;3.88;;;1.00;;
70335;SDS011;57756;47.408;18.940;2022-07-05T08:36:40;15.57;;;1.48;;
70335;SDS011;57756;47.408;18.940;2022-07-05T08:39:07;6.22;;;1.77;;
70335;SDS011;57756;47.408;18.940;2022-07-05T08:41:39;8.90;;;1.33;;
70335;SDS011;57756;47.408;18.940;2022-07-05T08:44:05;3.13;;;1.17;;
70335;SDS011;57756;47.408;18.940;2022-07-05T08:46:32;7.50;;;1.63;;
70335;SDS011;57756;47.408;18.940;2022-07-05T08:49:02;7.65;;;1.20;;
70335;SDS011;57756;47.408;18.940;2022-07-05T08:51:30;3.63;;;1.38;;
70335;SDS011;57756;47.408;18.940;2022-07-05T08:53:59;2.77;;;1.10;;
70335;SDS011;57756;47.408;18.940;2022-07-05T08:56:25;5.75;;;1.00;;
70335;SDS011;57756;47.408;18.940;2022-07-05T08:58:50;3.13;;;1.30;;
70335;SDS011;57756;47.408;18.940;2022-07-05T09:01:16;8.82;;;1.27;;
70335;SDS011;57756;47.408;18.940;2022-07-05T09:03:49;2.53;;;1.07;;
70335;SDS011;57756;47.408;18.940;2022-07-05T09:06:17;16.30;;;1.70;;
70335;SDS011;57756;47.408;18.940;2022-07-05T09:08:51;3.08;;;1.08;;
70335;SDS011;57756;47.408;18.940;2022-07-05T09:11:19;10.85;;;1.40;;
70335;SDS011;57756;47.408;18.940;2022-07-05T09:13:53;4.00;;;1.07;;
70335;SDS011;57756;47.408;18.940;2022-07-05T09:16:19;3.45;;;1.25;;
70335;SDS011;57756;47.408;18.940;2022-07-05T09:18:45;8.30;;;1.90;;
70335;SDS011;57756;47.408;18.940;2022-07-05T09:21:19;4.47;;;1.40;;
70335;SDS011;57756;47.408;18.940;2022-07-05T09:23:53;8.85;;;1.70;;
70335;SDS011;57756;47.408;18.940;2022-07-05T09:26:20;6.55;;;1.50;;
70335;SDS011;57756;47.408;18.940;2022-07-05T09:28:55;4.67;;;1.23;;
70335;SDS011;57756;47.408;18.940;2022-07-05T09:31:26;4.18;;;1.40;;
70335;SDS011;57756;47.408;18.940;2022-07-05T09:34:10;2.85;;;1.35;;
70335;SDS011;57756;47.408;18.940;2022-07-05T09:44:51;4.47;;;1.40;;
70335;SDS011;57756;47.408;18.940;2022-07-05T09:47:24;8.63;;;1.52;;
70335;SDS011;57756;47.408;18.940;2022-07-05T09:49:53;7.75;;;1.20;;
70335;SDS011;57756;47.408;18.940;2022-07-05T09:52:30;3.80;;;1.33;;
70335;SDS011;57756;47.408;18.940;2022-07-05T09:57:28;7.30;;;2.08;;
70335;SDS011;57756;47.408;18.940;2022-07-05T10:00:03;10.57;;;2.63;;
70335;SDS011;57756;47.408;18.940;2022-07-05T10:05:10;6.70;;;1.90;;
70335;SDS011;57756;47.408;18.940;2022-07-05T10:07:38;6.75;;;1.75;;
70335;SDS011;57756;47.408;18.940;2022-07-05T10:10:06;4.78;;;1.98;;
70335;SDS011;57756;47.408;18.940;2022-07-05T10:12:32;5.65;;;2.10;;
70335;SDS011;57756;47.408;18.940;2022-07-05T10:15:02;6.47;;;1.90;;
70335;SDS011;57756;47.408;18.940;2022-07-05T10:17:28;5.00;;;2.13;;
70335;SDS011;57756;47.408;18.940;2022-07-05T10:19:58;6.32;;;1.90;;
70335;SDS011;57756;47.408;18.940;2022-07-05T10:22:24;5.32;;;2.30;;
70335;SDS011;57756;47.408;18.940;2022-07-05T10:24:52;3.95;;;2.10;;
70335;SDS011;57756;47.408;18.940;2022-07-05T10:27:19;8.10;;;2.00;;
70335;SDS011;57756;47.408;18.940;2022-07-05T10:29:45;6.57;;;2.30;;
70335;SDS011;57756;47.408;18.940;2022-07-05T10:32:12;5.45;;;1.80;;
70335;SDS011;57756;47.408;18.940;2022-07-05T10:34:40;4.18;;;1.67;;
70335;SDS011;57756;47.408;18.940;2022-07-05T10:37:07;3.63;;;2.03;;
70335;SDS011;57756;47.408;18.940;2022-07-05T10:39:33;4.32;;;2.03;;
70335;SDS011;57756;47.408;18.940;2022-07-05T10:42:00;4.18;;;2.45;;
70335;SDS011;57756;47.408;18.940;2022-07-05T10:44:30;4.60;;;2.43;;
70335;SDS011;57756;47.408;18.940;2022-07-05T10:47:10;5.13;;;2.53;;
70335;SDS011;57756;47.408;18.940;2022-07-05T10:49:37;4.88;;;2.13;;
70335;SDS011;57756;47.408;18.940;2022-07-05T10:52:04;5.25;;;2.10;;
70335;SDS011;57756;47.408;18.940;2022-07-05T10:54:30;4.35;;;2.03;;
70335;SDS011;57756;47.408;18.940;2022-07-05T10:57:42;5.73;;;2.30;;
70335;SDS011;57756;47.408;18.940;2022-07-05T11:00:06;6.35;;;2.40;;
70335;SDS011;57756;47.408;18.940;2022-07-05T11:02:35;4.85;;;2.70;;
70335;SDS011;57756;47.408;18.940;2022-07-05T11:05:02;5.15;;;3.17;;
70335;SDS011;57756;47.408;18.940;2022-07-05T11:10:25;4.70;;;2.80;;
70335;SDS011;57756;47.408;18.940;2022-07-05T11:12:50;4.22;;;2.53;;
70335;SDS011;57756;47.408;18.940;2022-07-05T11:15:16;5.07;;;2.83;;
70335;SDS011;57756;47.408;18.940;2022-07-05T11:17:42;5.40;;;2.80;;
70335;SDS011;57756;47.408;18.940;2022-07-05T11:20:17;5.73;;;3.13;;
70335;SDS011;57756;47.408;18.940;2022-07-05T11:23:02;5.18;;;3.00;;
70335;SDS011;57756;47.408;18.940;2022-07-05T11:25:33;5.97;;;3.10;;
70335;SDS011;57756;47.408;18.940;2022-07-05T11:28:04;5.18;;;2.90;;
70335;SDS011;57756;47.408;18.940;2022-07-05T11:30:47;5.97;;;3.22;;
70335;SDS011;57756;47.408;18.940;2022-07-05T11:33:27;6.70;;;3.60;;
70335;SDS011;57756;47.408;18.940;2022-07-05T11:35:57;4.25;;;2.95;;
70335;SDS011;57756;47.408;18.940;2022-07-05T11:38:23;5.10;;;2.75;;
70335;SDS011;57756;47.408;18.940;2022-07-05T11:40:48;4.00;;;2.57;;
70335;SDS011;57756;47.408;18.940;2022-07-05T11:43:14;5.17;;;2.63;;
70335;SDS011;57756;47.408;18.940;2022-07-05T11:45:55;5.22;;;2.72;;
70335;SDS011;57756;47.408;18.940;2022-07-05T11:48:21;6.68;;;2.80;;
70335;SDS011;57756;47.408;18.940;2022-07-05T11:50:47;5.85;;;2.58;;
70335;SDS011;57756;47.408;18.940;2022-07-05T11:53:14;4.37;;;2.50;;
70335;SDS011;57756;47.408;18.940;2022-07-05T11:55:53;3.58;;;2.13;;
70335;SDS011;57756;47.408;18.940;2022-07-05T11:58:19;4.38;;;2.38;;
70335;SDS011;57756;47.408;18.940;2022-07-05T12:00:45;4.80;;;2.50;;
70335;SDS011;57756;47.408;18.940;2022-07-05T12:03:19;5.53;;;2.63;;
70335;SDS011;57756;47.408;18.940;2022-07-05T12:05:44;4.50;;;2.93;;
70335;SDS011;57756;47.408;18.940;2022-07-05T12:08:10;4.37;;;2.50;;
70335;SDS011;57756;47.408;18.940;2022-07-05T12:10:35;4.30;;;2.80;;
70335;SDS011;57756;47.408;18.940;2022-07-05T12:13:20;4.35;;;2.47;;
70335;SDS011;57756;47.408;18.940;2022-07-05T12:15:46;7.00;;;2.97;;
70335;SDS011;57756;47.408;18.940;2022-07-05T12:18:11;5.63;;;3.30;;
70335;SDS011;57756;47.408;18.940;2022-07-05T12:20:38;5.03;;;2.93;;
70335;SDS011;57756;47.408;18.940;2022-07-05T12:23:05;5.97;;;2.80;;
70335;SDS011;57756;47.408;18.940;2022-07-05T12:25:31;6.80;;;3.30;;
70335;SDS011;57756;47.408;18.940;2022-07-05T12:27:59;4.88;;;3.25;;
70335;SDS011;57756;47.408;18.940;2022-07-05T12:30:29;8.48;;;3.25;;
70335;SDS011;57756;47.408;18.940;2022-07-05T12:33:03;5.67;;;3.17;;
70335;SDS011;57756;47.408;18.940;2022-07-05T12:38:05;5.47;;;3.38;;
70335;SDS011;57756;47.408;18.940;2022-07-05T12:40:31;7.35;;;3.80;;
70335;SDS011;57756;47.408;18.940;2022-07-05T12:43:03;5.55;;;3.80;;
70335;SDS011;57756;47.408;18.940;2022-07-05T12:45:34;6.67;;;3.80;;
70335;SDS011;57756;47.408;18.940;2022-07-05T12:48:01;8.07;;;4.07;;
70335;SDS011;57756;47.408;18.940;2022-07-05T12:50:29;5.47;;;3.42;;
70335;SDS011;57756;47.408;18.940;2022-07-05T12:53:09;6.25;;;3.17;;
70335;SDS011;57756;47.408;18.940;2022-07-05T12:55:58;5.57;;;3.33;;
70335;SDS011;57756;47.408;18.940;2022-07-05T12:58:51;6.87;;;2.60;;
70335;SDS011;57756;47.408;18.940;2022-07-05T13:01:24;4.70;;;2.42;;
70335;SDS011;57756;47.408;18.940;2022-07-05T13:06:50;5.57;;;3.20;;
70335;SDS011;57756;47.408;18.940;2022-07-05T13:12:10;4.97;;;3.03;;
70335;SDS011;57756;47.408;18.940;2022-07-05T13:14:54;5.93;;;2.95;;
70335;SDS011;57756;47.408;18.940;2022-07-05T13:17:20;6.20;;;3.67;;
70335;SDS011;57756;47.408;18.940;2022-07-05T13:19:48;5.10;;;2.60;;
70335;SDS011;57756;47.408;18.940;2022-07-05T13:22:15;5.87;;;2.50;;
70335;SDS011;57756;47.408;18.940;2022-07-05T13:24:40;4.43;;;2.17;;
70335;SDS011;57756;47.408;18.940;2022-07-05T13:27:07;6.40;;;2.42;;
70335;SDS011;57756;47.408;18.940;2022-07-05T13:29:34;5.27;;;2.70;;
70335;SDS011;57756;47.408;18.940;2022-07-05T13:32:00;4.20;;;2.28;;
70335;SDS011;57756;47.408;18.940;2022-07-05T13:34:26;4.65;;;2.75;;
70335;SDS011;57756;47.408;18.940;2022-07-05T13:36:52;3.80;;;2.23;;
70335;SDS011;57756;47.408;18.940;2022-07-05T13:39:19;5.20;;;2.20;;
70335;SDS011;57756;47.408;18.940;2022-07-05T13:41:49;3.63;;;2.17;;
70335;SDS011;57756;47.408;18.940;2022-07-05T13:44:16;3.90;;;2.00;;
70335;SDS011;57756;47.408;18.940;2022-07-05T13:46:42;5.23;;;2.03;;
70335;SDS011;57756;47.408;18.940;2022-07-05T13:49:08;4.50;;;2.28;;
70335;SDS011;57756;47.408;18.940;2022-07-05T13:51:34;3.13;;;2.10;;
70335;SDS011;57756;47.408;18.940;2022-07-05T13:53:59;5.40;;;2.07;;
70335;SDS011;57756;47.408;18.940;2022-07-05T13:56:25;3.83;;;2.30;;
70335;SDS011;57756;47.408;18.940;2022-07-05T13:58:51;3.50;;;2.53;;
70335;SDS011;57756;47.408;18.940;2022-07-05T14:01:17;4.40;;;2.53;;
70335;SDS011;57756;47.408;18.940;2022-07-05T14:03:45;4.15;;;2.53;;
70335;SDS011;57756;47.408;18.940;2022-07-05T14:06:11;3.73;;;2.47;;
70335;SDS011;57756;47.408;18.940;2022-07-05T14:08:37;3.78;;;2.47;;
70335;SDS011;57756;47.408;18.940;2022-07-05T14:11:02;3.97;;;2.40;;
70335;SDS011;57756;47.408;18.940;2022-07-05T14:13:28;3.50;;;2.20;;
70335;SDS011;57756;47.408;18.940;2022-07-05T14:15:54;5.00;;;1.95;;
70335;SDS011;57756;47.408;18.940;2022-07-05T14:18:20;5.00;;;2.10;;
70335;SDS011;57756;47.408;18.940;2022-07-05T14:20:49;3.95;;;1.80;;
70335;SDS011;57756;47.408;18.940;2022-07-05T14:23:15;3.30;;;1.90;;
70335;SDS011;57756;47.408;18.940;2022-07-05T14:25:41;3.13;;;2.00;;
70335;SDS011;57756;47.408;18.940;2022-07-05T14:28:07;3.17;;;1.92;;
70335;SDS011;57756;47.408;18.940;2022-07-05T14:30:34;2.80;;;1.70;;
70335;SDS011;57756;47.408;18.940;2022-07-05T14:33:00;2.90;;;1.80;;
70335;SDS011;57756;47.408;18.940;2022-07-05T14:35:26;4.40;;;1.50;;
70335;SDS011;57756;47.408;18.940;2022-07-05T14:37:52;4.88;;;1.95;;
70335;SDS011;57756;47.408;18.940;2022-07-05T14:40:17;3.00;;;1.80;;
70335;SDS011;57756;47.408;18.940;2022-07-05T14:42:43;3.75;;;1.67;;
70335;SDS011;57756;47.408;18.940;2022-07-05T14:45:12;3.92;;;1.70;;
70335;SDS011;57756;47.408;18.940;2022-07-05T14:47:37;3.20;;;1.40;;
70335;SDS011;57756;47.408;18.940;2022-07-05T14:50:03;3.33;;;1.60;;
70335;SDS011;57756;47.408;18.940;2022-07-05T14:52:29;3.57;;;1.57;;
70335;SDS011;57756;47.408;18.940;2022-07-05T14:54:55;2.72;;;1.63;;
70335;SDS011;57756;47.408;18.940;2022-07-05T14:57:21;3.25;;;1.65;;
70335;SDS011;57756;47.408;18.940;2022-07-05T14:59:47;3.30;;;1.60;;
70335;SDS011;57756;47.408;18.940;2022-07-05T15:02:12;3.00;;;1.60;;
70335;SDS011;57756;47.408;18.940;2022-07-05T15:04:39;3.53;;;1.30;;